createdAt,value
2022-12-27T00:00:35.326Z,9.68
2022-12-27T00:03:02.267Z,9.82
2022-12-27T00:05:29.166Z,7.85
2022-12-27T00:07:56.375Z,10.30
2022-12-27T00:10:23.344Z,9.70
2022-12-27T00:12:50.201Z,11.23
2022-12-27T00:15:17.189Z,12.68
2022-12-27T00:17:44.540Z,10.45
2022-12-27T00:20:12.121Z,10.50
2022-12-27T00:22:40.821Z,8.50
2022-12-27T00:25:08.467Z,8.18
2022-12-27T00:27:35.317Z,10.50
2022-12-27T00:30:02.435Z,6.63
2022-12-27T00:32:29.189Z,7.35
2022-12-27T00:34:56.028Z,7.85
2022-12-27T00:37:22.939Z,10.10
2022-12-27T00:39:49.796Z,8.57
2022-12-27T00:42:16.665Z,11.07
2022-12-27T00:44:43.552Z,15.50
2022-12-27T00:47:10.755Z,9.20
2022-12-27T00:49:37.596Z,9.20
2022-12-27T00:52:04.648Z,9.15
2022-12-27T00:54:31.515Z,11.50
2022-12-27T00:56:58.349Z,12.85
2022-12-27T00:59:25.216Z,9.35
2022-12-27T01:01:52.177Z,9.45
2022-12-27T01:04:19.117Z,11.20
2022-12-27T01:06:45.961Z,10.80
2022-12-27T01:09:12.811Z,9.10
2022-12-27T01:11:40.793Z,10.40
2022-12-27T01:14:07.659Z,10.70
2022-12-27T01:16:34.839Z,10.15
2022-12-27T01:19:01.815Z,10.45
2022-12-27T01:21:30.843Z,10.50
2022-12-27T01:23:58.494Z,9.60
2022-12-27T01:26:25.826Z,12.35
2022-12-27T01:28:53.717Z,14.02
2022-12-27T01:31:24.803Z,12.50
2022-12-27T01:33:55.846Z,9.82
2022-12-27T01:36:24.835Z,12.32
2022-12-27T01:38:51.988Z,11.95
2022-12-27T01:41:47.355Z,11.77
2022-12-27T01:44:32.938Z,9.25
2022-12-27T01:47:01.923Z,10.05
2022-12-27T01:49:28.711Z,13.20
2022-12-27T01:51:55.916Z,12.55
2022-12-27T01:54:23.204Z,11.35
2022-12-27T01:56:50.165Z,9.35
2022-12-27T01:59:17.339Z,10.65
2022-12-27T02:01:47.740Z,13.43
2022-12-27T02:04:18.982Z,12.80
2022-12-27T02:06:47.339Z,14.57
2022-12-27T02:09:16.999Z,13.05
2022-12-27T02:14:30.383Z,14.32
2022-12-27T02:17:12.178Z,12.07
2022-12-27T02:19:42.206Z,9.15
2022-12-27T02:23:12.615Z,13.23
2022-12-27T02:26:10.306Z,12.65
2022-12-27T02:29:22.035Z,17.35
2022-12-27T02:32:00.937Z,11.38
2022-12-27T02:34:33.799Z,9.27
2022-12-27T02:37:12.264Z,15.52
2022-12-27T02:39:46.303Z,15.27
2022-12-27T02:42:34.323Z,12.82
2022-12-27T02:45:21.106Z,11.88
2022-12-27T02:48:07.683Z,13.27
2022-12-27T02:51:35.474Z,12.98
2022-12-27T02:54:38.550Z,11.40
2022-12-27T02:57:23.759Z,14.93
2022-12-27T03:00:35.670Z,15.55
2022-12-27T03:03:28.865Z,18.07
2022-12-27T03:06:20.259Z,11.82
2022-12-27T03:09:01.225Z,12.63
2022-12-27T03:12:03.092Z,12.50
2022-12-27T03:14:57.190Z,13.63
2022-12-27T03:17:31.205Z,11.85
2022-12-27T03:20:23.579Z,13.35
2022-12-27T03:23:11.815Z,10.57
2022-12-27T03:25:42.252Z,13.65
2022-12-27T03:28:36.685Z,16.58
2022-12-27T03:31:28.811Z,14.65
2022-12-27T03:34:21.906Z,12.57
2022-12-27T03:37:07.703Z,11.93
2022-12-27T03:39:40.384Z,10.85
2022-12-27T03:42:34.492Z,11.60
2022-12-27T03:45:01.537Z,12.60
2022-12-27T03:47:55.168Z,8.02
2022-12-27T03:50:31.423Z,14.98
2022-12-27T03:53:06.381Z,8.85
2022-12-27T03:55:33.630Z,13.85
2022-12-27T03:58:00.857Z,10.00
2022-12-27T04:00:27.820Z,13.63
2022-12-27T04:02:55.282Z,11.13
2022-12-27T04:05:22.255Z,10.70
2022-12-27T04:08:07.541Z,13.48
2022-12-27T04:10:53.073Z,11.80
2022-12-27T04:13:38.324Z,9.55
2022-12-27T04:16:23.976Z,7.80
2022-12-27T04:19:09.281Z,8.95
2022-12-27T04:21:54.669Z,9.02
2022-12-27T04:24:40.063Z,13.65
2022-12-27T04:27:25.430Z,11.32
2022-12-27T04:30:11.030Z,11.65
2022-12-27T04:32:56.525Z,8.02
2022-12-27T04:35:23.356Z,6.85
2022-12-27T04:37:50.299Z,12.70
2022-12-27T04:40:35.881Z,9.50
2022-12-27T04:43:21.176Z,9.32
2022-12-27T04:46:06.855Z,9.68
2022-12-27T04:48:52.197Z,15.57
2022-12-27T04:51:37.879Z,14.00
2022-12-27T04:54:35.458Z,13.65
2022-12-27T04:57:02.513Z,12.63
2022-12-27T04:59:47.779Z,16.02
2022-12-27T05:02:15.942Z,14.73
2022-12-27T05:04:43.156Z,12.48
2022-12-27T05:07:31.681Z,9.00
2022-12-27T05:10:19.742Z,13.65
2022-12-27T05:13:05.370Z,14.18
2022-12-27T05:15:32.223Z,12.32
2022-12-27T05:17:59.114Z,12.10
2022-12-27T05:20:26.133Z,10.68
2022-12-27T05:23:11.718Z,13.55
2022-12-27T05:25:43.902Z,11.48
2022-12-27T05:28:12.287Z,13.90
2022-12-27T05:30:42.847Z,21.33
2022-12-27T05:33:09.827Z,14.35
2022-12-27T05:35:36.941Z,14.65
2022-12-27T05:38:04.297Z,10.55
2022-12-27T05:40:31.313Z,12.05
2022-12-27T05:43:00.038Z,12.23
2022-12-27T05:45:27.352Z,11.97
2022-12-27T05:47:54.922Z,13.32
2022-12-27T05:50:22.107Z,12.20
2022-12-27T05:52:48.953Z,11.40
2022-12-27T05:55:15.939Z,8.20
2022-12-27T05:57:42.813Z,10.93
2022-12-27T06:00:12.253Z,15.27
2022-12-27T06:02:40.026Z,11.13
2022-12-27T06:05:07.276Z,18.00
2022-12-27T06:07:36.189Z,11.63
2022-12-27T06:10:05.495Z,14.15
2022-12-27T06:12:32.319Z,15.68
2022-12-27T06:14:59.152Z,19.05
2022-12-27T06:17:26.005Z,15.65
2022-12-27T06:19:57.090Z,6.90
2022-12-27T06:22:24.731Z,7.28
2022-12-27T06:24:51.779Z,12.85
2022-12-27T06:27:18.605Z,15.00
2022-12-27T06:29:45.522Z,14.45
2022-12-27T06:32:12.391Z,15.38
2022-12-27T06:34:39.267Z,10.15
2022-12-27T06:37:06.140Z,11.90
2022-12-27T06:39:33.004Z,14.40
2022-12-27T06:41:59.758Z,15.30
2022-12-27T06:44:26.906Z,14.80
2022-12-27T06:46:53.846Z,21.77
2022-12-27T06:49:20.861Z,21.45
2022-12-27T06:51:52.594Z,30.60
2022-12-27T06:54:22.778Z,18.40
2022-12-27T06:56:49.832Z,26.33
2022-12-27T06:59:16.631Z,18.23
2022-12-27T07:01:43.634Z,17.33
2022-12-27T07:04:10.802Z,27.80
2022-12-27T07:06:38.186Z,19.27
2022-12-27T07:09:05.947Z,16.65
2022-12-27T07:11:36.869Z,12.15
2022-12-27T07:14:04.035Z,7.72
2022-12-27T07:16:31.377Z,11.85
2022-12-27T07:18:59.560Z,15.68
2022-12-27T07:21:28.645Z,16.55
2022-12-27T07:23:56.042Z,14.50
2022-12-27T07:26:30.251Z,15.35
2022-12-27T07:28:59.750Z,17.30
2022-12-27T07:31:29.801Z,18.17
2022-12-27T07:33:57.902Z,18.17
2022-12-27T07:36:28.513Z,16.90
2022-12-27T07:38:55.996Z,17.05
2022-12-27T07:41:23.341Z,16.65
2022-12-27T07:43:50.271Z,17.83
2022-12-27T07:46:18.288Z,26.48
2022-12-27T07:48:45.795Z,14.70
2022-12-27T07:51:13.139Z,18.40
2022-12-27T07:53:40.359Z,22.05
2022-12-27T07:56:12.972Z,13.77
2022-12-27T07:58:45.381Z,12.98
2022-12-27T08:01:14.415Z,17.77
2022-12-27T08:03:41.871Z,20.08
2022-12-27T08:06:23.604Z,14.57
2022-12-27T08:08:52.157Z,13.93
2022-12-27T08:11:19.559Z,15.13
2022-12-27T08:13:46.983Z,15.45
2022-12-27T08:16:20.159Z,10.63
2022-12-27T08:18:47.533Z,13.55
2022-12-27T08:21:14.685Z,14.98
2022-12-27T08:23:41.919Z,13.00
2022-12-27T08:26:10.067Z,15.10
2022-12-27T08:28:37.494Z,18.65
2022-12-27T08:31:08.489Z,14.50
2022-12-27T08:33:36.097Z,16.08
2022-12-27T08:36:53.442Z,18.08
2022-12-27T08:38:55.963Z,15.85
2022-12-27T08:41:24.102Z,16.75
2022-12-27T08:43:51.119Z,18.30
2022-12-27T08:46:19.595Z,14.32
2022-12-27T08:48:50.904Z,11.63
2022-12-27T08:51:28.419Z,14.70
2022-12-27T08:54:00.068Z,15.13
2022-12-27T08:56:26.997Z,15.65
2022-12-27T08:58:53.915Z,16.20
2022-12-27T09:01:21.063Z,14.85
2022-12-27T09:03:48.122Z,20.25
2022-12-27T09:06:18.465Z,15.77
2022-12-27T09:08:47.431Z,15.23
2022-12-27T09:11:15.980Z,15.48
2022-12-27T09:13:43.036Z,15.75
2022-12-27T09:16:12.718Z,14.52
2022-12-27T09:18:40.588Z,15.80
2022-12-27T09:21:10.343Z,14.90
2022-12-27T09:23:38.015Z,18.80
2022-12-27T09:26:10.826Z,16.27
2022-12-27T09:28:38.400Z,22.98
2022-12-27T09:31:05.970Z,20.17
2022-12-27T09:33:33.132Z,16.92
2022-12-27T09:36:11.655Z,18.27
2022-12-27T09:38:39.440Z,21.20
2022-12-27T09:42:33.748Z,23.67
2022-12-27T09:44:29.328Z,13.13
2022-12-27T09:47:28.972Z,16.20
2022-12-27T09:50:01.115Z,16.27
2022-12-27T09:52:37.341Z,16.45
2022-12-27T09:55:26.993Z,14.32
2022-12-27T09:58:03.334Z,17.45
2022-12-27T10:00:34.874Z,10.25
2022-12-27T10:03:06.963Z,16.02
2022-12-27T10:05:37.181Z,12.95
2022-12-27T10:08:13.398Z,14.38
2022-12-27T10:10:59.334Z,13.70
2022-12-27T10:13:54.367Z,16.23
2022-12-27T10:16:34.836Z,21.17
2022-12-27T10:19:33.082Z,13.98
2022-12-27T10:22:14.220Z,13.02
2022-12-27T10:24:42.678Z,16.02
2022-12-27T10:27:22.717Z,14.35
2022-12-27T10:29:53.334Z,10.15
2022-12-27T10:32:20.295Z,12.75
2022-12-27T10:34:53.704Z,12.88
2022-12-27T10:37:20.520Z,13.32
2022-12-27T10:39:47.385Z,14.60
2022-12-27T10:42:42.055Z,14.07
2022-12-27T10:45:28.584Z,12.10
2022-12-27T10:47:58.024Z,9.23
2022-12-27T10:50:28.512Z,19.85
2022-12-27T10:52:57.726Z,11.07
2022-12-27T10:55:36.851Z,10.95
2022-12-27T10:58:20.803Z,10.75
2022-12-27T11:00:56.740Z,10.25
2022-12-27T11:03:26.172Z,12.52
2022-12-27T11:06:05.815Z,11.43
2022-12-27T11:08:32.945Z,11.50
2022-12-27T11:11:22.022Z,8.02
2022-12-27T11:13:49.497Z,10.45
2022-12-27T11:16:30.842Z,8.88
2022-12-27T11:19:00.079Z,19.13
2022-12-27T11:21:28.631Z,12.63
2022-12-27T11:24:07.252Z,10.60
2022-12-27T11:26:53.659Z,15.35
2022-12-27T11:29:23.770Z,8.50
2022-12-27T11:31:52.246Z,8.40
2022-12-27T11:34:27.153Z,11.48
2022-12-27T11:37:01.796Z,10.18
2022-12-27T11:39:43.041Z,10.85
2022-12-27T11:42:33.579Z,9.93
2022-12-27T11:45:19.391Z,11.02
2022-12-27T11:48:08.627Z,9.27
2022-12-27T11:50:51.302Z,10.65
2022-12-27T11:53:29.644Z,8.73
2022-12-27T11:56:19.498Z,7.55
2022-12-27T11:59:25.467Z,8.57
2022-12-27T12:02:16.913Z,14.45
2022-12-27T12:04:55.919Z,8.95
2022-12-27T12:07:37.925Z,9.43
2022-12-27T12:10:42.572Z,15.25
2022-12-27T12:14:00.185Z,11.02
2022-12-27T12:16:42.432Z,10.98
2022-12-27T12:19:46.977Z,12.70
2022-12-27T12:22:13.801Z,13.05
2022-12-27T12:25:20.058Z,9.93
2022-12-27T12:28:47.340Z,10.57
2022-12-27T12:31:26.443Z,12.32
2022-12-27T12:34:14.717Z,14.48
2022-12-27T12:37:17.812Z,11.25
2022-12-27T12:40:15.615Z,17.63
2022-12-27T12:43:05.178Z,14.18
2022-12-27T12:45:54.045Z,12.13
2022-12-27T12:48:51.139Z,12.60
2022-12-27T12:51:29.986Z,13.63
2022-12-27T12:54:05.322Z,13.57
2022-12-27T12:56:42.802Z,18.98
2022-12-27T12:59:44.017Z,11.77
2022-12-27T13:02:14.010Z,13.13
2022-12-27T13:05:09.254Z,16.77
2022-12-27T13:07:45.062Z,13.95
2022-12-27T13:10:39.348Z,15.63
2022-12-27T13:13:39.132Z,16.58
2022-12-27T13:16:26.238Z,16.33
2022-12-27T13:19:18.166Z,18.45
2022-12-27T13:22:22.645Z,14.93
2022-12-27T13:25:14.929Z,19.42
2022-12-27T13:27:58.398Z,17.23
2022-12-27T13:30:36.021Z,16.35
2022-12-27T13:33:37.047Z,20.05
2022-12-27T13:36:07.126Z,16.60
2022-12-27T13:39:14.573Z,18.85
2022-12-27T13:42:17.255Z,19.17
2022-12-27T13:45:20.986Z,18.23
2022-12-27T13:48:10.268Z,19.33
2022-12-27T13:51:02.056Z,19.98
2022-12-27T13:53:37.773Z,20.42
2022-12-27T13:56:52.854Z,21.75
2022-12-27T13:59:32.375Z,20.50
2022-12-27T14:02:21.393Z,18.13
2022-12-27T14:05:16.110Z,16.17
2022-12-27T14:08:03.296Z,19.35
2022-12-27T14:10:47.728Z,19.13
2022-12-27T14:13:26.883Z,22.20
2022-12-27T14:16:05.708Z,20.77
2022-12-27T14:18:45.376Z,18.45
2022-12-27T14:21:39.828Z,21.50
2022-12-27T14:24:30.955Z,21.40
2022-12-27T14:27:16.330Z,16.98
2022-12-27T14:30:07.376Z,21.05
2022-12-27T14:32:53.251Z,16.58
2022-12-27T14:35:35.608Z,21.10
2022-12-27T14:38:23.805Z,19.98
2022-12-27T14:41:16.627Z,16.80
2022-12-27T14:44:02.989Z,18.30
2022-12-27T14:46:54.547Z,21.85
2022-12-27T14:49:40.325Z,19.33
2022-12-27T14:52:45.976Z,20.50
2022-12-27T14:55:35.921Z,17.35
2022-12-27T14:58:29.264Z,21.95
2022-12-27T15:01:15.238Z,22.05
2022-12-27T15:03:59.191Z,20.08
2022-12-27T15:06:58.254Z,21.08
2022-12-27T15:10:01.387Z,20.50
2022-12-27T15:12:41.420Z,21.85
2022-12-27T15:15:32.375Z,19.27
2022-12-27T15:18:05.173Z,20.40
2022-12-27T15:21:11.187Z,20.48
2022-12-27T15:23:43.887Z,20.95
2022-12-27T15:26:17.185Z,22.35
2022-12-27T15:28:50.239Z,21.30
2022-12-27T15:31:46.682Z,19.20
2022-12-27T15:34:41.406Z,19.17
2022-12-27T15:37:46.943Z,21.60
2022-12-27T15:40:48.313Z,22.42
2022-12-27T15:43:24.628Z,16.08
2022-12-27T15:46:35.754Z,18.80
2022-12-27T15:49:20.341Z,19.17
2022-12-27T15:51:54.855Z,19.17
2022-12-27T15:54:24.650Z,15.93
2022-12-27T15:57:16.129Z,20.02
2022-12-27T15:59:52.935Z,18.13
2022-12-27T16:02:29.239Z,20.85
2022-12-27T16:04:58.977Z,17.77
2022-12-27T16:10:45.910Z,15.15
2022-12-27T16:13:41.754Z,16.50
2022-12-27T16:16:32.633Z,16.85
2022-12-27T16:19:29.712Z,14.25
2022-12-27T16:21:56.904Z,14.82
2022-12-27T16:24:27.019Z,13.13
2022-12-27T16:26:55.958Z,14.60
2022-12-27T16:29:28.995Z,17.63
2022-12-27T16:32:13.514Z,13.82
2022-12-27T16:34:42.245Z,13.60
2022-12-27T16:37:26.358Z,13.90
2022-12-27T16:40:22.952Z,13.98
2022-12-27T16:42:59.082Z,12.20
2022-12-27T16:45:32.153Z,16.30
2022-12-27T16:48:23.942Z,13.20
2022-12-27T16:51:01.479Z,13.65
2022-12-27T16:54:05.807Z,17.02
2022-12-27T16:56:35.986Z,12.45
2022-12-27T16:59:03.341Z,16.08
2022-12-27T17:01:50.275Z,14.38
2022-12-27T17:04:56.631Z,12.85
2022-12-27T17:07:56.193Z,13.40
2022-12-27T17:10:30.117Z,11.95
2022-12-27T17:13:21.008Z,13.63
2022-12-27T17:16:20.162Z,12.52
2022-12-27T17:18:57.960Z,10.15
2022-12-27T17:21:39.376Z,9.80
2022-12-27T17:24:16.437Z,15.75
2022-12-27T17:27:20.308Z,14.07
2022-12-27T17:30:22.494Z,13.55
2022-12-27T17:33:04.140Z,12.02
2022-12-27T17:35:53.445Z,15.15
2022-12-27T17:38:49.767Z,14.35
2022-12-27T17:41:54.167Z,12.85
2022-12-27T17:44:50.878Z,11.20
2022-12-27T17:47:30.054Z,9.82
2022-12-27T17:50:02.665Z,13.38
2022-12-27T17:52:48.303Z,13.73
2022-12-27T17:55:40.889Z,13.10
2022-12-27T17:58:11.207Z,10.35
2022-12-27T18:00:54.941Z,12.68
2022-12-27T18:03:22.915Z,11.55
2022-12-27T18:05:50.172Z,14.07
2022-12-27T18:08:30.827Z,12.07
2022-12-27T18:10:58.904Z,14.95
2022-12-27T18:13:29.181Z,12.02
2022-12-27T18:15:57.460Z,10.38
2022-12-27T18:18:34.627Z,18.52
2022-12-27T18:21:04.203Z,11.65
2022-12-27T18:26:15.748Z,14.68
2022-12-27T18:28:43.639Z,10.27
2022-12-27T18:31:17.090Z,13.77
2022-12-27T18:33:51.548Z,11.65
2022-12-27T18:36:24.161Z,16.92
2022-12-27T18:39:34.037Z,14.07
2022-12-27T18:42:25.746Z,12.15
2022-12-27T18:45:02.067Z,10.25
2022-12-27T18:47:29.166Z,10.40
2022-12-27T18:50:02.305Z,9.95
2022-12-27T18:52:35.061Z,14.95
2022-12-27T18:55:26.796Z,12.40
2022-12-27T18:58:20.872Z,8.75
2022-12-27T19:00:49.239Z,12.00
2022-12-27T19:03:18.858Z,9.60
2022-12-27T19:08:50.935Z,13.63
2022-12-27T19:11:28.423Z,10.95
2022-12-27T19:14:00.664Z,10.68
2022-12-27T19:16:31.016Z,10.05
2022-12-27T19:19:04.772Z,16.05
2022-12-27T19:21:37.184Z,8.77
2022-12-27T19:24:23.631Z,19.52
2022-12-27T19:27:13.859Z,10.52
2022-12-27T19:29:50.024Z,12.38
2022-12-27T19:32:26.013Z,11.65
2022-12-27T19:34:56.238Z,10.65
2022-12-27T19:37:26.970Z,8.07
2022-12-27T19:39:54.120Z,8.82
2022-12-27T19:42:30.902Z,10.30
2022-12-27T19:44:58.034Z,9.93
2022-12-27T19:47:27.395Z,10.10
2022-12-27T19:49:54.392Z,12.65
2022-12-27T19:52:23.769Z,9.55
2022-12-27T19:54:52.609Z,9.32
2022-12-27T19:57:19.838Z,8.52
2022-12-27T19:59:46.651Z,9.93
2022-12-27T20:02:13.859Z,13.18
2022-12-27T20:04:41.063Z,8.35
2022-12-27T20:07:18.151Z,10.02
2022-12-27T20:09:45.090Z,8.77
2022-12-27T20:12:12.554Z,9.45
2022-12-27T20:14:39.517Z,10.77
2022-12-27T20:17:06.442Z,7.57
2022-12-27T20:19:33.538Z,11.45
2022-12-27T20:22:00.713Z,11.60
2022-12-27T20:24:27.571Z,9.20
2022-12-27T20:26:54.409Z,9.73
2022-12-27T20:29:21.840Z,9.63
2022-12-27T20:31:50.105Z,10.10
2022-12-27T20:34:17.074Z,6.88
2022-12-27T20:36:44.672Z,7.20
2022-12-27T20:39:11.547Z,6.78
2022-12-27T20:41:38.424Z,9.60
2022-12-27T20:44:05.795Z,7.53
2022-12-27T20:46:32.692Z,8.65
2022-12-27T20:49:01.146Z,11.25
2022-12-27T20:51:31.673Z,10.73
2022-12-27T20:54:01.144Z,8.18
2022-12-27T20:56:28.444Z,7.20
2022-12-27T20:58:55.456Z,9.65
2022-12-27T21:01:24.571Z,7.10
2022-12-27T21:03:51.558Z,9.32
2022-12-27T21:06:24.200Z,7.68
2022-12-27T21:08:56.696Z,8.60
2022-12-27T21:11:27.560Z,9.23
2022-12-27T21:13:55.025Z,10.02
2022-12-27T21:16:24.853Z,8.73
2022-12-27T21:18:52.391Z,9.38
2022-12-27T21:21:22.620Z,8.23
2022-12-27T21:23:50.992Z,8.98
2022-12-27T21:26:23.905Z,9.02
2022-12-27T21:28:51.402Z,10.27
2022-12-27T21:31:19.445Z,6.75
2022-12-27T21:33:47.458Z,8.02
2022-12-27T21:36:19.949Z,8.15
2022-12-27T21:38:47.097Z,13.55
2022-12-27T21:41:21.880Z,8.85
2022-12-27T21:43:49.438Z,8.77
2022-12-27T21:46:19.311Z,8.85
2022-12-27T21:48:46.535Z,7.90
2022-12-27T21:51:16.109Z,10.52
2022-12-27T21:56:14.384Z,7.72
2022-12-27T21:58:42.949Z,7.40
2022-12-27T22:01:20.655Z,8.25
2022-12-27T22:03:49.269Z,9.93
2022-12-27T22:06:19.312Z,6.40
2022-12-27T22:08:48.632Z,11.55
2022-12-27T22:11:16.471Z,8.95
2022-12-27T22:13:44.040Z,6.60
2022-12-27T22:16:17.927Z,8.82
2022-12-27T22:18:45.659Z,8.57
2022-12-27T22:21:26.737Z,8.43
2022-12-27T22:23:57.695Z,7.90
2022-12-27T22:26:27.744Z,8.55
2022-12-27T22:28:54.732Z,8.82
2022-12-27T22:31:24.000Z,6.25
2022-12-27T22:33:51.558Z,6.70
2022-12-27T22:36:21.036Z,8.48
2022-12-27T22:38:50.311Z,8.50
2022-12-27T22:41:21.193Z,8.73
2022-12-27T22:43:56.757Z,8.85
2022-12-27T22:46:24.290Z,10.48
2022-12-27T22:48:56.596Z,10.52
2022-12-27T22:51:26.442Z,8.38
2022-12-27T22:53:54.256Z,7.65
2022-12-27T22:56:26.413Z,8.70
2022-12-27T22:58:53.506Z,6.75
2022-12-27T23:01:23.933Z,6.55
2022-12-27T23:03:51.448Z,8.32
2022-12-27T23:06:18.883Z,6.95
2022-12-27T23:08:46.425Z,11.15
2022-12-27T23:11:16.532Z,9.70
2022-12-27T23:13:44.029Z,6.65
2022-12-27T23:16:11.083Z,9.35
2022-12-27T23:18:39.527Z,7.18
2022-12-27T23:21:21.356Z,8.65
2022-12-27T23:23:52.273Z,10.85
2022-12-27T23:26:21.493Z,13.23
2022-12-27T23:28:49.454Z,8.57
2022-12-27T23:31:18.142Z,7.97
2022-12-27T23:33:45.323Z,13.47
2022-12-27T23:36:13.425Z,8.68
2022-12-27T23:38:43.720Z,9.63
2022-12-27T23:41:22.045Z,9.48
2022-12-27T23:43:52.706Z,8.77
2022-12-27T23:46:30.500Z,10.07
2022-12-27T23:49:03.497Z,7.45
2022-12-27T23:51:31.666Z,6.70
2022-12-27T23:53:58.969Z,7.95
2022-12-27T23:56:32.060Z,7.53
2022-12-27T23:59:00.681Z,6.95
